Time;durP1;ratioP1;P1;durP2;ratioP2;P2;SDS_P1;SDS_P2;PMS_P1;PMS_P2;Temp;Humidity;BMP_temperature;BMP_pressure;BME280_temperature;BME280_humidity;BME280_pressure;Samples;Min_cycle;Max_cycle;Signal;HPM_P1;HPM_P2
2022/12/07 00:02:56;;;;;;;14.27;6.53;;;;;;;;;;10394323;28;20219;-76
2022/12/07 00:07:57;;;;;;;11.02;6.15;;;;;;;;;;10383294;28;20635;-77
2022/12/07 00:12:58;;;;;;;10.13;5.57;;;;;;;;;;10389466;28;20226;-76
2022/12/07 00:17:59;;;;;;;12.43;6.65;;;;;;;;;;10391856;28;20414;-76
2022/12/07 00:23:00;;;;;;;16.33;6.97;;;;;;;;;;10402844;28;21164;-76
2022/12/07 00:28:01;;;;;;;14.98;7.32;;;;;;;;;;10379961;28;20520;-76
2022/12/07 00:33:02;;;;;;;13.37;7.50;;;;;;;;;;10398436;28;20226;-76
2022/12/07 00:38:03;;;;;;;13.30;6.65;;;;;;;;;;10366752;28;20678;-76
2022/12/07 00:43:04;;;;;;;11.73;5.57;;;;;;;;;;10389152;28;20254;-77
2022/12/07 00:48:05;;;;;;;12.38;6.30;;;;;;;;;;10412597;28;20733;-77
2022/12/07 00:53:06;;;;;;;17.60;6.88;;;;;;;;;;10381006;28;20700;-77
2022/12/07 00:58:07;;;;;;;16.35;7.32;;;;;;;;;;10382591;28;20215;-77
2022/12/07 01:03:10;;;;;;;11.05;5.97;;;;;;;;;;10404647;28;20246;-77
2022/12/07 01:08:11;;;;;;;13.07;6.13;;;;;;;;;;10406939;28;20246;-78
2022/12/07 01:13:12;;;;;;;11.45;5.93;;;;;;;;;;10403312;28;20661;-78
2022/12/07 01:18:13;;;;;;;11.35;5.57;;;;;;;;;;10408200;28;20573;-78
2022/12/07 01:23:14;;;;;;;13.55;5.18;;;;;;;;;;10384419;28;20227;-78
2022/12/07 01:28:15;;;;;;;11.15;6.00;;;;;;;;;;10403446;28;20885;-78
2022/12/07 01:33:16;;;;;;;11.38;7.13;;;;;;;;;;10400204;28;20729;-78
2022/12/07 01:38:17;;;;;;;9.68;6.20;;;;;;;;;;10391954;28;20242;-78
2022/12/07 01:43:19;;;;;;;8.80;5.80;;;;;;;;;;10406595;28;20215;-78
2022/12/07 01:48:22;;;;;;;13.70;6.70;;;;;;;;;;10407318;28;20250;-78
2022/12/07 01:53:25;;;;;;;13.80;6.85;;;;;;;;;;10394031;28;20743;-78
2022/12/07 01:58:26;;;;;;;14.50;7.07;;;;;;;;;;10383578;28;20220;-76
2022/12/07 02:03:46;;;;;;;12.50;7.22;;;;;;;;;;10381996;28;20211;-78
2022/12/07 02:08:47;;;;;;;13.13;6.78;;;;;;;;;;10405964;28;20207;-78
2022/12/07 02:13:48;;;;;;;10.07;6.93;;;;;;;;;;10398322;28;20331;-78
2022/12/07 02:19:08;;;;;;;12.88;6.85;;;;;;;;;;10407888;28;20734;-78
2022/12/07 02:24:12;;;;;;;14.88;7.38;;;;;;;;;;10405155;28;20695;-78
2022/12/07 02:29:13;;;;;;;20.02;8.32;;;;;;;;;;10401749;28;20220;-78
2022/12/07 02:34:26;;;;;;;15.18;8.23;;;;;;;;;;10404309;28;20223;-77
2022/12/07 02:39:47;;;;;;;17.70;7.30;;;;;;;;;;10400117;28;20597;-79
2022/12/07 02:44:48;;;;;;;15.85;7.30;;;;;;;;;;10388389;28;20271;-79
2022/12/07 02:49:50;;;;;;;16.02;7.28;;;;;;;;;;10403025;28;20298;-78
2022/12/07 02:54:51;;;;;;;17.95;8.20;;;;;;;;;;10427049;28;20279;-81
2022/12/07 02:59:57;;;;;;;13.77;7.55;;;;;;;;;;10415898;28;20246;-78
2022/12/07 03:05:09;;;;;;;13.85;7.35;;;;;;;;;;10378199;28;20795;-78
2022/12/07 03:10:25;;;;;;;16.50;7.63;;;;;;;;;;10383609;28;20269;-79
2022/12/07 03:15:26;;;;;;;17.73;7.97;;;;;;;;;;10407877;28;20264;-78
2022/12/07 03:20:29;;;;;;;19.98;7.60;;;;;;;;;;10408728;28;20223;-78
2022/12/07 03:25:30;;;;;;;21.40;9.40;;;;;;;;;;10397478;28;20219;-77
2022/12/07 03:30:42;;;;;;;18.33;9.10;;;;;;;;;;10409538;28;20227;-78
2022/12/07 03:35:45;;;;;;;13.07;6.78;;;;;;;;;;10407536;28;20241;-78
2022/12/07 03:40:58;;;;;;;15.77;8.00;;;;;;;;;;10408579;28;20226;-79
2022/12/07 03:45:59;;;;;;;14.20;7.45;;;;;;;;;;10407159;28;20222;-77
2022/12/07 03:51:17;;;;;;;12.63;7.47;;;;;;;;;;10427059;28;20215;-76
2022/12/07 03:56:19;;;;;;;14.00;8.05;;;;;;;;;;10410657;28;20272;-79
2022/12/07 04:01:21;;;;;;;13.82;7.65;;;;;;;;;;10389358;28;20935;-79
2022/12/07 04:06:22;;;;;;;15.73;8.07;;;;;;;;;;10414489;28;20222;-77
2022/12/07 04:11:23;;;;;;;13.27;8.05;;;;;;;;;;10417497;28;20223;-77
2022/12/07 04:16:24;;;;;;;19.80;8.57;;;;;;;;;;10427491;28;20210;-77
2022/12/07 04:21:25;;;;;;;16.20;8.63;;;;;;;;;;10429501;28;20226;-77
2022/12/07 04:26:26;;;;;;;14.13;8.30;;;;;;;;;;10410971;28;20229;-77
2022/12/07 04:31:27;;;;;;;13.10;8.38;;;;;;;;;;10413898;28;20229;-78
2022/12/07 04:36:28;;;;;;;14.63;8.02;;;;;;;;;;10428804;28;20797;-76
2022/12/07 04:41:29;;;;;;;13.18;8.40;;;;;;;;;;10421179;28;20228;-78
2022/12/07 04:46:31;;;;;;;17.00;9.35;;;;;;;;;;10428207;28;20292;-76
2022/12/07 04:51:32;;;;;;;14.20;9.15;;;;;;;;;;10427983;28;20282;-77
2022/12/07 04:56:35;;;;;;;17.23;8.60;;;;;;;;;;10429144;28;20211;-79
2022/12/07 05:01:36;;;;;;;18.70;10.23;;;;;;;;;;10423883;28;20226;-76
2022/12/07 05:06:37;;;;;;;18.02;9.43;;;;;;;;;;10429553;28;20234;-76
2022/12/07 05:11:38;;;;;;;15.68;9.07;;;;;;;;;;10418044;28;20215;-78
2022/12/07 05:16:39;;;;;;;12.25;8.63;;;;;;;;;;10421978;28;20304;-79
2022/12/07 05:21:40;;;;;;;12.57;8.45;;;;;;;;;;10419444;28;20220;-78
2022/12/07 05:26:42;;;;;;;14.85;8.60;;;;;;;;;;10403077;28;20223;-78
2022/12/07 05:31:44;;;;;;;15.35;8.55;;;;;;;;;;10420156;28;20214;-77
2022/12/07 05:36:45;;;;;;;16.35;7.88;;;;;;;;;;10414167;28;20974;-77
2022/12/07 05:47:06;;;;;;;14.05;7.38;;;;;;;;;;10412357;28;20231;-78
2022/12/07 05:52:08;;;;;;;16.35;8.45;;;;;;;;;;10420055;28;20227;-77
2022/12/07 05:57:09;;;;;;;13.30;7.68;;;;;;;;;;10416146;28;20713;-79
2022/12/07 06:02:12;;;;;;;11.00;6.60;;;;;;;;;;10416227;28;20223;-78
2022/12/07 06:07:14;;;;;;;14.55;9.15;;;;;;;;;;10413942;28;20353;-76
2022/12/07 06:12:33;;;;;;;15.27;8.23;;;;;;;;;;10412224;28;20269;-78
2022/12/07 06:17:34;;;;;;;14.27;7.50;;;;;;;;;;10413340;28;20214;-77
2022/12/07 06:22:35;;;;;;;15.20;7.20;;;;;;;;;;10415709;28;20699;-78
2022/12/07 06:27:36;;;;;;;11.02;6.85;;;;;;;;;;10400297;28;20706;-76
2022/12/07 06:32:38;;;;;;;11.35;5.70;;;;;;;;;;10406407;28;20216;-78
2022/12/07 06:37:39;;;;;;;10.45;5.28;;;;;;;;;;10393723;28;20244;-78
2022/12/07 06:42:40;;;;;;;7.15;4.80;;;;;;;;;;10412229;28;20215;-78
2022/12/07 06:47:41;;;;;;;8.05;5.07;;;;;;;;;;10381813;28;20249;-77
2022/12/07 06:52:42;;;;;;;6.30;4.00;;;;;;;;;;10388086;28;20808;-77
2022/12/07 06:57:43;;;;;;;8.40;4.40;;;;;;;;;;10409422;28;20314;-78
2022/12/07 07:02:44;;;;;;;4.57;4.15;;;;;;;;;;10417497;28;20206;-80
2022/12/07 07:07:45;;;;;;;5.28;3.72;;;;;;;;;;10416791;28;20318;-79
2022/12/07 07:12:46;;;;;;;3.90;3.60;;;;;;;;;;10431154;28;20222;-78
2022/12/07 07:17:47;;;;;;;3.20;2.97;;;;;;;;;;10401004;28;20763;-77
2022/12/07 07:22:49;;;;;;;3.45;2.92;;;;;;;;;;10394717;28;20215;-79
2022/12/07 07:27:50;;;;;;;4.93;3.45;;;;;;;;;;10417223;28;20320;-76
2022/12/07 07:32:51;;;;;;;4.82;3.05;;;;;;;;;;10373508;28;20321;-77
2022/12/07 07:37:52;;;;;;;4.22;3.75;;;;;;;;;;10405796;28;20313;-77
2022/12/07 07:42:54;;;;;;;4.88;3.17;;;;;;;;;;10381779;28;20219;-76
2022/12/07 07:47:55;;;;;;;5.28;4.15;;;;;;;;;;10396978;28;20261;-79
2022/12/07 07:52:57;;;;;;;5.70;3.67;;;;;;;;;;10397177;28;20241;-77
2022/12/07 07:57:58;;;;;;;3.58;3.38;;;;;;;;;;10417783;28;20215;-78
2022/12/07 08:02:59;;;;;;;6.53;3.72;;;;;;;;;;10420844;28;20714;-78
2022/12/07 08:08:00;;;;;;;4.55;3.15;;;;;;;;;;10414802;28;20230;-77
2022/12/07 08:13:10;;;;;;;3.65;3.00;;;;;;;;;;10399753;28;20218;-78
2022/12/07 08:18:12;;;;;;;6.13;4.00;;;;;;;;;;10424743;28;20223;-78
2022/12/07 08:23:13;;;;;;;4.32;3.92;;;;;;;;;;10418749;28;20246;-77
2022/12/07 08:28:14;;;;;;;6.60;3.95;;;;;;;;;;10400743;28;20222;-78
2022/12/07 08:33:15;;;;;;;4.82;3.88;;;;;;;;;;10417013;28;20225;-78
2022/12/07 08:38:16;;;;;;;5.07;3.90;;;;;;;;;;10415518;28;20222;-78
2022/12/07 08:43:17;;;;;;;5.13;4.55;;;;;;;;;;10405462;28;20215;-77
2022/12/07 08:48:21;;;;;;;3.50;3.00;;;;;;;;;;10388607;28;20222;-76
2022/12/07 08:53:23;;;;;;;1.85;1.73;;;;;;;;;;10395360;28;20216;-77
2022/12/07 08:58:24;;;;;;;1.40;1.40;;;;;;;;;;10386281;28;20214;-78
2022/12/07 09:03:25;;;;;;;1.25;1.25;;;;;;;;;;10401301;28;20283;-77
2022/12/07 09:08:29;;;;;;;4.68;1.77;;;;;;;;;;10407801;28;20226;-75
2022/12/07 09:13:30;;;;;;;1.75;1.70;;;;;;;;;;10419224;28;20364;-78
2022/12/07 09:18:32;;;;;;;2.10;2.00;;;;;;;;;;10409530;28;20313;-79
2022/12/07 09:23:33;;;;;;;3.88;2.35;;;;;;;;;;10401437;28;20273;-77
2022/12/07 09:28:34;;;;;;;2.22;2.10;;;;;;;;;;10413152;28;20218;-77
2022/12/07 09:33:35;;;;;;;2.13;1.90;;;;;;;;;;10416807;28;20247;-78
2022/12/07 09:38:36;;;;;;;3.38;1.65;;;;;;;;;;10422544;28;20227;-80
2022/12/07 09:43:39;;;;;;;1.95;1.75;;;;;;;;;;10422141;28;20310;-77
2022/12/07 09:48:42;;;;;;;2.35;2.20;;;;;;;;;;10425209;28;20713;-76
2022/12/07 09:53:44;;;;;;;4.47;1.98;;;;;;;;;;10440416;28;20211;-76
2022/12/07 09:58:45;;;;;;;2.67;2.05;;;;;;;;;;10435707;28;20244;-76
2022/12/07 10:03:49;;;;;;;2.45;2.28;;;;;;;;;;10416882;28;20624;-77
2022/12/07 10:08:50;;;;;;;5.25;1.77;;;;;;;;;;10399636;28;20211;-80
2022/12/07 10:13:53;;;;;;;2.33;1.77;;;;;;;;;;10400136;28;20240;-78
2022/12/07 10:18:54;;;;;;;2.28;2.08;;;;;;;;;;10392485;28;20266;-77
2022/12/07 10:24:09;;;;;;;2.40;2.20;;;;;;;;;;10412760;28;20221;-76
2022/12/07 10:29:21;;;;;;;2.75;1.70;;;;;;;;;;10398362;28;20214;-77
2022/12/07 10:34:28;;;;;;;1.83;1.30;;;;;;;;;;10395540;28;20238;-77
2022/12/07 10:39:30;;;;;;;2.78;1.73;;;;;;;;;;10393056;28;20264;-76
2022/12/07 10:44:34;;;;;;;2.13;1.95;;;;;;;;;;10403881;28;20209;-75
2022/12/07 10:49:49;;;;;;;1.40;1.38;;;;;;;;;;10399367;28;20886;-76
2022/12/07 10:55:09;;;;;;;1.50;1.42;;;;;;;;;;10392401;28;20780;-78
2022/12/07 11:00:10;;;;;;;5.32;1.60;;;;;;;;;;10396991;28;20333;-78
2022/12/07 11:05:11;;;;;;;1.35;1.27;;;;;;;;;;10391625;28;20225;-78
2022/12/07 11:10:24;;;;;;;2.78;1.48;;;;;;;;;;10401494;28;20232;-78
2022/12/07 11:15:29;;;;;;;2.85;1.23;;;;;;;;;;10392362;28;20217;-78
2022/12/07 11:20:42;;;;;;;1.92;1.55;;;;;;;;;;10393264;28;20277;-77
2022/12/07 11:25:50;;;;;;;3.80;1.30;;;;;;;;;;10410744;28;20642;-78
2022/12/07 11:31:09;;;;;;;1.48;1.38;;;;;;;;;;10417833;28;20599;-78
2022/12/07 11:36:19;;;;;;;1.80;1.50;;;;;;;;;;10413649;28;20271;-78
2022/12/07 11:41:23;;;;;;;5.00;1.67;;;;;;;;;;10409623;28;20219;-76
2022/12/07 11:46:26;;;;;;;1.75;1.23;;;;;;;;;;10401967;28;20286;-77
2022/12/07 11:51:29;;;;;;;1.60;1.50;;;;;;;;;;10392146;28;20643;-76
2022/12/07 11:56:31;;;;;;;1.17;1.15;;;;;;;;;;10410268;28;20211;-76
2022/12/07 12:01:35;;;;;;;0.90;0.90;;;;;;;;;;10402246;28;20226;-78
2022/12/07 12:06:36;;;;;;;2.03;0.57;;;;;;;;;;10391410;28;20422;-77
2022/12/07 12:11:56;;;;;;;3.55;0.80;;;;;;;;;;10419988;28;20622;-77
2022/12/07 12:17:15;;;;;;;0.90;0.80;;;;;;;;;;10424278;28;20269;-77
2022/12/07 12:22:19;;;;;;;1.38;0.75;;;;;;;;;;10421126;28;20225;-79
2022/12/07 12:27:29;;;;;;;2.35;0.77;;;;;;;;;;10418502;28;20233;-77
2022/12/07 12:32:43;;;;;;;1.08;0.77;;;;;;;;;;10416896;28;20597;-77
2022/12/07 12:37:45;;;;;;;0.45;0.45;;;;;;;;;;10409462;28;20817;-76
2022/12/07 12:42:50;;;;;;;5.38;0.88;;;;;;;;;;10408003;28;20253;-78
2022/12/07 12:47:55;;;;;;;1.75;0.47;;;;;;;;;;10401611;28;20319;-77
2022/12/07 12:53:02;;;;;;;1.85;0.52;;;;;;;;;;10397961;28;20354;-77
2022/12/07 12:58:22;;;;;;;3.65;1.23;;;;;;;;;;10405110;28;20222;-77
2022/12/07 13:03:28;;;;;;;1.98;0.95;;;;;;;;;;10403727;28;20637;-76
2022/12/07 13:08:29;;;;;;;2.22;0.40;;;;;;;;;;10396223;28;20334;-77
2022/12/07 13:13:32;;;;;;;5.05;2.22;;;;;;;;;;10405177;28;20221;-76
2022/12/07 13:18:33;;;;;;;1.85;1.67;;;;;;;;;;10403597;28;20658;-77
2022/12/07 13:23:34;;;;;;;3.30;0.30;;;;;;;;;;10391308;28;20211;-78
2022/12/07 13:28:39;;;;;;;0.35;0.22;;;;;;;;;;10414710;28;20582;-78
2022/12/07 13:33:43;;;;;;;0.22;0.22;;;;;;;;;;10410024;28;20242;-78
2022/12/07 13:38:49;;;;;;;0.40;0.40;;;;;;;;;;10402134;28;20203;-78
2022/12/07 13:43:52;;;;;;;1.73;0.95;;;;;;;;;;10437031;28;20211;-78
2022/12/07 13:48:55;;;;;;;1.45;0.60;;;;;;;;;;10403847;28;20211;-79
2022/12/07 13:54:00;;;;;;;0.95;0.60;;;;;;;;;;10424288;28;20454;-78
2022/12/07 13:59:01;;;;;;;0.80;0.80;;;;;;;;;;10424042;28;20320;-78
2022/12/07 14:04:21;;;;;;;1.45;1.08;;;;;;;;;;10404816;28;20853;-79
2022/12/07 14:09:27;;;;;;;1.65;1.30;;;;;;;;;;10385943;28;20291;-77
2022/12/07 14:14:30;;;;;;;3.40;1.00;;;;;;;;;;10413930;28;20211;-77
2022/12/07 14:19:44;;;;;;;4.00;1.00;;;;;;;;;;10400753;28;20332;-78
2022/12/07 14:24:45;;;;;;;5.15;1.02;;;;;;;;;;10414867;28;20590;-77
2022/12/07 14:29:47;;;;;;;3.88;1.55;;;;;;;;;;10394654;28;20215;-78
2022/12/07 14:35:15;;;;;;;3.80;1.20;;;;;;;;;;10423432;28;20231;-77
2022/12/07 14:40:17;;;;;;;1.02;1.02;;;;;;;;;;10425585;28;20206;-76
2022/12/07 14:45:20;;;;;;;0.85;0.85;;;;;;;;;;10410785;28;20731;-78
2022/12/07 14:50:21;;;;;;;0.70;0.63;;;;;;;;;;10404796;28;20221;-77
2022/12/07 14:55:27;;;;;;;2.30;1.70;;;;;;;;;;10401455;28;20449;-77
2022/12/07 15:00:29;;;;;;;0.82;0.45;;;;;;;;;;10394172;28;20217;-77
2022/12/07 15:05:30;;;;;;;0.40;0.40;;;;;;;;;;10391336;28;20313;-77
2022/12/07 15:10:33;;;;;;;1.50;0.73;;;;;;;;;;10402881;28;20218;-78
2022/12/07 15:15:34;;;;;;;0.43;0.43;;;;;;;;;;10403718;28;20210;-79
2022/12/07 15:20:35;;;;;;;1.50;0.80;;;;;;;;;;10405298;28;20246;-80
2022/12/07 15:25:36;;;;;;;2.38;1.23;;;;;;;;;;10382105;28;20229;-77
2022/12/07 15:30:38;;;;;;;1.80;1.67;;;;;;;;;;10393598;28;20218;-76
2022/12/07 15:35:48;;;;;;;28.85;14.25;;;;;;;;;;10386126;28;20223;-76
2022/12/07 15:40:49;;;;;;;44.47;20.52;;;;;;;;;;10395119;28;20690;-77
2022/12/07 15:45:50;;;;;;;7.72;5.57;;;;;;;;;;10397449;28;20648;-76
2022/12/07 15:50:51;;;;;;;4.95;4.43;;;;;;;;;;10410188;28;20786;-79
2022/12/07 15:55:53;;;;;;;4.32;3.78;;;;;;;;;;10383064;28;20234;-77
2022/12/07 16:00:54;;;;;;;23.20;12.75;;;;;;;;;;10411943;28;20279;-77
2022/12/07 16:05:55;;;;;;;0.95;0.95;;;;;;;;;;10411288;28;20750;-76
2022/12/07 16:10:56;;;;;;;0.20;0.20;;;;;;;;;;10403252;28;20219;-76
2022/12/07 16:15:57;;;;;;;0.20;0.20;;;;;;;;;;10405062;28;20293;-77
2022/12/07 16:20:58;;;;;;;1.45;0.50;;;;;;;;;;10411685;28;20548;-77
2022/12/07 16:26:09;;;;;;;0.38;0.17;;;;;;;;;;10376236;28;21140;-77
2022/12/07 16:31:15;;;;;;;0.25;0.20;;;;;;;;;;10384159;28;20592;-77
2022/12/07 16:36:16;;;;;;;0.75;0.40;;;;;;;;;;10411737;28;20696;-78
2022/12/07 16:41:17;;;;;;;0.15;0.15;;;;;;;;;;10416797;28;20215;-78
2022/12/07 16:46:19;;;;;;;3.10;0.43;;;;;;;;;;10414201;28;20223;-78
2022/12/07 16:51:20;;;;;;;0.50;0.40;;;;;;;;;;10418707;28;20254;-77
2022/12/07 16:56:21;;;;;;;3.13;0.20;;;;;;;;;;10408936;28;20302;-77
2022/12/07 17:01:22;;;;;;;0.65;0.10;;;;;;;;;;10411182;28;20284;-77
2022/12/07 17:06:25;;;;;;;1.17;0.40;;;;;;;;;;10434105;28;20223;-77
2022/12/07 17:11:28;;;;;;;0.13;0.13;;;;;;;;;;10432735;28;20291;-79
2022/12/07 17:16:29;;;;;;;0.38;0.38;;;;;;;;;;10421597;28;20222;-77
2022/12/07 17:21:30;;;;;;;0.20;0.20;;;;;;;;;;10415016;28;20219;-78
2022/12/07 17:26:31;;;;;;;0.63;0.25;;;;;;;;;;10406439;28;20433;-77
2022/12/07 17:31:33;;;;;;;1.20;0.20;;;;;;;;;;10409871;28;20276;-77
2022/12/07 17:36:34;;;;;;;2.53;0.30;;;;;;;;;;10369748;28;20314;-77
2022/12/07 17:47:01;;;;;;;1.45;0.15;;;;;;;;;;10373367;28;20218;-78
2022/12/07 17:57:22;;;;;;;0.30;0.30;;;;;;;;;;10379776;28;20774;-78
2022/12/07 18:02:23;;;;;;;0.50;0.43;;;;;;;;;;10372155;28;20262;-78
2022/12/07 18:07:24;;;;;;;1.35;0.50;;;;;;;;;;10385958;28;20242;-78
2022/12/07 18:12:25;;;;;;;2.10;1.42;;;;;;;;;;10370087;28;20266;-76
2022/12/07 18:17:26;;;;;;;0.73;0.63;;;;;;;;;;10368519;28;20204;-76
2022/12/07 18:22:27;;;;;;;0.40;0.40;;;;;;;;;;10372519;28;20316;-78
2022/12/07 18:27:28;;;;;;;0.70;0.70;;;;;;;;;;10377327;28;20232;-77
2022/12/07 18:32:29;;;;;;;0.70;0.70;;;;;;;;;;10372974;28;20220;-77
2022/12/07 18:37:32;;;;;;;0.40;0.30;;;;;;;;;;10369247;28;20224;-77
2022/12/07 18:42:33;;;;;;;0.63;0.60;;;;;;;;;;10382354;28;20245;-77
2022/12/07 18:47:34;;;;;;;0.60;0.60;;;;;;;;;;10372649;28;20615;-77
2022/12/07 18:52:35;;;;;;;0.77;0.77;;;;;;;;;;10364197;28;20704;-79
2022/12/07 18:57:36;;;;;;;2.38;1.33;;;;;;;;;;10376759;28;20227;-78
2022/12/07 19:02:37;;;;;;;1.00;1.00;;;;;;;;;;10379565;28;20299;-79
2022/12/07 19:07:38;;;;;;;3.05;1.60;;;;;;;;;;10383684;28;20646;-78
2022/12/07 19:12:40;;;;;;;2.53;2.33;;;;;;;;;;10374033;28;21148;-77
2022/12/07 19:17:41;;;;;;;2.20;1.90;;;;;;;;;;10374799;28;20219;-79
2022/12/07 19:22:42;;;;;;;4.13;1.83;;;;;;;;;;10378269;28;20223;-78
2022/12/07 19:27:43;;;;;;;4.35;2.25;;;;;;;;;;10373247;28;20249;-79
2022/12/07 19:32:44;;;;;;;1.85;1.75;;;;;;;;;;10369419;28;20242;-78
2022/12/07 19:37:46;;;;;;;4.38;2.60;;;;;;;;;;10412473;28;20663;-78
2022/12/07 19:42:47;;;;;;;2.47;2.25;;;;;;;;;;10420196;28;20281;-78
2022/12/07 19:47:48;;;;;;;5.40;2.25;;;;;;;;;;10425662;28;20336;-78
2022/12/07 19:52:49;;;;;;;3.20;2.95;;;;;;;;;;10430267;28;20231;-78
2022/12/07 19:57:50;;;;;;;3.30;3.05;;;;;;;;;;10423578;28;20215;-79
2022/12/07 20:02:51;;;;;;;2.88;2.67;;;;;;;;;;10419043;28;20227;-79
2022/12/07 20:07:52;;;;;;;3.03;2.70;;;;;;;;;;10429679;28;20211;-78
2022/12/07 20:18:13;;;;;;;3.42;2.70;;;;;;;;;;10427864;28;21100;-80
2022/12/07 20:23:14;;;;;;;2.13;1.90;;;;;;;;;;10426353;28;20218;-80
2022/12/07 20:28:15;;;;;;;1.75;1.15;;;;;;;;;;10430077;28;20214;-79
2022/12/07 20:33:16;;;;;;;2.17;0.88;;;;;;;;;;10404410;28;20838;-79
2022/12/07 20:38:18;;;;;;;0.88;0.88;;;;;;;;;;10425435;28;20279;-79
2022/12/07 20:43:19;;;;;;;1.35;0.68;;;;;;;;;;10390619;28;20251;-80
2022/12/07 20:48:20;;;;;;;1.23;0.90;;;;;;;;;;10421925;28;20604;-78
2022/12/07 20:53:21;;;;;;;1.65;1.20;;;;;;;;;;10427927;28;20275;-78
2022/12/07 20:58:22;;;;;;;0.82;0.82;;;;;;;;;;10423163;28;20218;-79
2022/12/07 21:03:23;;;;;;;4.07;0.80;;;;;;;;;;10421730;28;20258;-78
2022/12/07 21:08:24;;;;;;;0.70;0.45;;;;;;;;;;10417201;28;20687;-79
2022/12/07 21:13:26;;;;;;;0.50;0.50;;;;;;;;;;10428347;28;20242;-78
2022/12/07 21:18:29;;;;;;;2.05;0.40;;;;;;;;;;10422839;28;20207;-78
2022/12/07 21:23:30;;;;;;;1.50;0.60;;;;;;;;;;10404191;28;20214;-79
2022/12/07 21:28:31;;;;;;;3.13;0.85;;;;;;;;;;10405925;28;20271;-79
2022/12/07 21:33:33;;;;;;;1.40;0.43;;;;;;;;;;10405450;28;20284;-78
2022/12/07 21:38:34;;;;;;;0.75;0.47;;;;;;;;;;10401178;28;20349;-78
2022/12/07 21:43:35;;;;;;;1.40;0.30;;;;;;;;;;10425278;28;20261;-78
2022/12/07 21:48:36;;;;;;;3.63;0.52;;;;;;;;;;10404002;28;20215;-78
2022/12/07 21:53:38;;;;;;;0.60;0.50;;;;;;;;;;10403298;28;20259;-79
2022/12/07 21:58:39;;;;;;;2.65;0.80;;;;;;;;;;10399222;28;20210;-79
2022/12/07 22:03:40;;;;;;;1.73;1.20;;;;;;;;;;10417098;28;20222;-80
2022/12/07 22:08:42;;;;;;;1.40;1.30;;;;;;;;;;10415658;28;20218;-80
2022/12/07 22:19:04;;;;;;;1.55;1.45;;;;;;;;;;10412329;28;20224;-80
2022/12/07 22:24:05;;;;;;;1.50;1.40;;;;;;;;;;10422817;28;20219;-80
2022/12/07 22:29:06;;;;;;;3.05;1.73;;;;;;;;;;10415734;28;20219;-80
2022/12/07 22:34:12;;;;;;;5.00;1.85;;;;;;;;;;10418934;28;20594;-81
2022/12/07 22:39:13;;;;;;;2.58;2.38;;;;;;;;;;10402743;28;20219;-80
2022/12/07 22:44:14;;;;;;;3.17;2.22;;;;;;;;;;10421126;28;20707;-79
2022/12/07 22:49:15;;;;;;;2.17;2.08;;;;;;;;;;10416410;28;20234;-79
2022/12/07 22:54:16;;;;;;;2.13;1.75;;;;;;;;;;10420810;28;20203;-79
2022/12/07 22:59:17;;;;;;;8.57;2.08;;;;;;;;;;10426847;28;20210;-79
2022/12/07 23:04:18;;;;;;;5.88;2.50;;;;;;;;;;10424851;28;20218;-78
2022/12/07 23:09:19;;;;;;;2.03;1.92;;;;;;;;;;10425326;28;20293;-79
2022/12/07 23:14:26;;;;;;;2.42;1.77;;;;;;;;;;10425383;28;20887;-78
2022/12/07 23:19:27;;;;;;;4.75;2.70;;;;;;;;;;10424995;28;20907;-79
2022/12/07 23:24:28;;;;;;;3.25;2.90;;;;;;;;;;10429866;28;20218;-78
2022/12/07 23:29:29;;;;;;;3.50;2.65;;;;;;;;;;10426662;28;20293;-78
2022/12/07 23:34:31;;;;;;;4.45;3.63;;;;;;;;;;10424793;28;20297;-78
2022/12/07 23:39:32;;;;;;;5.00;3.38;;;;;;;;;;10427201;28;20211;-78
2022/12/07 23:44:33;;;;;;;6.15;3.35;;;;;;;;;;10407598;28;20230;-78
2022/12/07 23:49:34;;;;;;;6.95;4.28;;;;;;;;;;10449010;28;20214;-78
2022/12/07 23:54:35;;;;;;;3.60;2.85;;;;;;;;;;10424419;28;20211;-78
2022/12/07 23:59:37;;;;;;;3.35;2.70;;;;;;;;;;10407476;28;20211;-78
